sensor_id;sensor_type;location;lat;lon;timestamp;P1;durP1;ratioP1;P2;durP2;ratioP2
28605;SDS011;46498;49.968;7.754;2022-09-09T00:08:18;4.03;;;1.02;;
28605;SDS011;46498;49.968;7.754;2022-09-09T00:13:34;6.70;;;1.52;;
28605;SDS011;46498;49.968;7.754;2022-09-09T00:18:46;7.15;;;1.27;;
28605;SDS011;46498;49.968;7.754;2022-09-09T00:25:46;7.07;;;1.30;;
28605;SDS011;46498;49.968;7.754;2022-09-09T00:30:54;4.95;;;1.02;;
28605;SDS011;46498;49.968;7.754;2022-09-09T00:41:01;3.90;;;1.37;;
28605;SDS011;46498;49.968;7.754;2022-09-09T00:46:25;9.23;;;1.33;;
28605;SDS011;46498;49.968;7.754;2022-09-09T01:00:25;5.75;;;1.23;;
28605;SDS011;46498;49.968;7.754;2022-09-09T01:05:33;5.13;;;1.43;;
28605;SDS011;46498;49.968;7.754;2022-09-09T01:15:55;5.95;;;1.35;;
28605;SDS011;46498;49.968;7.754;2022-09-09T01:21:07;9.10;;;1.50;;
28605;SDS011;46498;49.968;7.754;2022-09-09T01:29:24;6.53;;;1.33;;
28605;SDS011;46498;49.968;7.754;2022-09-09T01:34:29;5.43;;;1.40;;
28605;SDS011;46498;49.968;7.754;2022-09-09T01:39:34;7.97;;;1.58;;
28605;SDS011;46498;49.968;7.754;2022-09-09T01:44:41;6.95;;;1.75;;
28605;SDS011;46498;49.968;7.754;2022-09-09T01:49:42;6.55;;;1.90;;
28605;SDS011;46498;49.968;7.754;2022-09-09T01:54:52;7.12;;;1.42;;
28605;SDS011;46498;49.968;7.754;2022-09-09T02:00:05;9.68;;;1.87;;
28605;SDS011;46498;49.968;7.754;2022-09-09T02:10:52;5.60;;;1.37;;
28605;SDS011;46498;49.968;7.754;2022-09-09T02:17:09;7.62;;;1.52;;
28605;SDS011;46498;49.968;7.754;2022-09-09T02:22:32;9.63;;;2.35;;
28605;SDS011;46498;49.968;7.754;2022-09-09T02:27:36;4.53;;;1.67;;
28605;SDS011;46498;49.968;7.754;2022-09-09T02:32:38;8.68;;;2.30;;
28605;SDS011;46498;49.968;7.754;2022-09-09T02:37:44;5.10;;;1.48;;
28605;SDS011;46498;49.968;7.754;2022-09-09T02:42:51;11.02;;;1.52;;
28605;SDS011;46498;49.968;7.754;2022-09-09T02:47:59;5.93;;;1.65;;
28605;SDS011;46498;49.968;7.754;2022-09-09T02:54:35;4.57;;;1.50;;
28605;SDS011;46498;49.968;7.754;2022-09-09T02:59:43;7.37;;;1.80;;
28605;SDS011;46498;49.968;7.754;2022-09-09T03:04:45;7.07;;;1.73;;
28605;SDS011;46498;49.968;7.754;2022-09-09T03:09:51;11.30;;;2.20;;
28605;SDS011;46498;49.968;7.754;2022-09-09T03:14:57;8.55;;;2.62;;
28605;SDS011;46498;49.968;7.754;2022-09-09T03:19:58;8.30;;;1.40;;
28605;SDS011;46498;49.968;7.754;2022-09-09T03:24:59;6.57;;;1.83;;
28605;SDS011;46498;49.968;7.754;2022-09-09T03:30:02;9.65;;;2.30;;
28605;SDS011;46498;49.968;7.754;2022-09-09T03:35:04;5.23;;;2.17;;
28605;SDS011;46498;49.968;7.754;2022-09-09T03:40:07;7.03;;;2.10;;
28605;SDS011;46498;49.968;7.754;2022-09-09T03:45:10;5.85;;;1.85;;
28605;SDS011;46498;49.968;7.754;2022-09-09T03:50:12;10.13;;;2.22;;
28605;SDS011;46498;49.968;7.754;2022-09-09T03:55:17;7.87;;;2.10;;
28605;SDS011;46498;49.968;7.754;2022-09-09T04:00:19;8.48;;;2.25;;
28605;SDS011;46498;49.968;7.754;2022-09-09T04:05:24;7.62;;;2.00;;
28605;SDS011;46498;49.968;7.754;2022-09-09T04:10:25;6.50;;;1.92;;
28605;SDS011;46498;49.968;7.754;2022-09-09T04:15:28;4.95;;;1.55;;
28605;SDS011;46498;49.968;7.754;2022-09-09T04:20:30;5.97;;;1.40;;
28605;SDS011;46498;49.968;7.754;2022-09-09T04:25:31;7.32;;;1.77;;
28605;SDS011;46498;49.968;7.754;2022-09-09T04:30:32;5.22;;;1.60;;
28605;SDS011;46498;49.968;7.754;2022-09-09T04:40:36;4.68;;;1.75;;
28605;SDS011;46498;49.968;7.754;2022-09-09T04:45:38;5.50;;;1.90;;
28605;SDS011;46498;49.968;7.754;2022-09-09T04:50:41;8.23;;;2.15;;
28605;SDS011;46498;49.968;7.754;2022-09-09T04:55:43;6.10;;;2.10;;
28605;SDS011;46498;49.968;7.754;2022-09-09T05:00:44;6.95;;;2.25;;
28605;SDS011;46498;49.968;7.754;2022-09-09T05:05:45;5.47;;;2.25;;
28605;SDS011;46498;49.968;7.754;2022-09-09T05:10:47;8.13;;;2.37;;
28605;SDS011;46498;49.968;7.754;2022-09-09T05:15:51;6.45;;;2.10;;
28605;SDS011;46498;49.968;7.754;2022-09-09T05:20:58;12.13;;;2.65;;
28605;SDS011;46498;49.968;7.754;2022-09-09T05:26:01;9.48;;;2.50;;
28605;SDS011;46498;49.968;7.754;2022-09-09T05:31:04;7.27;;;2.57;;
28605;SDS011;46498;49.968;7.754;2022-09-09T05:36:10;13.43;;;2.50;;
28605;SDS011;46498;49.968;7.754;2022-09-09T05:41:16;10.00;;;2.47;;
28605;SDS011;46498;49.968;7.754;2022-09-09T05:46:22;7.45;;;2.42;;
28605;SDS011;46498;49.968;7.754;2022-09-09T05:51:26;13.18;;;2.70;;
28605;SDS011;46498;49.968;7.754;2022-09-09T05:56:31;12.93;;;2.58;;
28605;SDS011;46498;49.968;7.754;2022-09-09T06:01:34;12.53;;;2.23;;
28605;SDS011;46498;49.968;7.754;2022-09-09T06:06:42;9.77;;;2.30;;
28605;SDS011;46498;49.968;7.754;2022-09-09T06:11:47;13.88;;;3.03;;
28605;SDS011;46498;49.968;7.754;2022-09-09T06:16:48;5.93;;;2.60;;
28605;SDS011;46498;49.968;7.754;2022-09-09T06:21:53;13.62;;;2.90;;
28605;SDS011;46498;49.968;7.754;2022-09-09T06:26:55;15.65;;;3.03;;
28605;SDS011;46498;49.968;7.754;2022-09-09T06:32:01;11.77;;;2.72;;
28605;SDS011;46498;49.968;7.754;2022-09-09T06:37:03;9.43;;;2.60;;
28605;SDS011;46498;49.968;7.754;2022-09-09T06:42:20;8.18;;;2.55;;
28605;SDS011;46498;49.968;7.754;2022-09-09T06:48:23;11.73;;;2.43;;
28605;SDS011;46498;49.968;7.754;2022-09-09T06:58:28;9.15;;;2.45;;
28605;SDS011;46498;49.968;7.754;2022-09-09T07:03:30;11.65;;;2.53;;
28605;SDS011;46498;49.968;7.754;2022-09-09T07:08:32;9.45;;;2.20;;
28605;SDS011;46498;49.968;7.754;2022-09-09T07:13:34;14.90;;;2.60;;
28605;SDS011;46498;49.968;7.754;2022-09-09T07:18:36;13.57;;;2.75;;
28605;SDS011;46498;49.968;7.754;2022-09-09T07:23:37;12.25;;;2.17;;
28605;SDS011;46498;49.968;7.754;2022-09-09T07:28:39;5.75;;;2.10;;
28605;SDS011;46498;49.968;7.754;2022-09-09T07:33:42;7.10;;;2.17;;
28605;SDS011;46498;49.968;7.754;2022-09-09T07:38:47;8.85;;;2.17;;
28605;SDS011;46498;49.968;7.754;2022-09-09T07:43:53;13.68;;;2.10;;
28605;SDS011;46498;49.968;7.754;2022-09-09T07:48:55;12.88;;;2.47;;
28605;SDS011;46498;49.968;7.754;2022-09-09T07:54:02;11.12;;;2.30;;
28605;SDS011;46498;49.968;7.754;2022-09-09T07:59:06;13.52;;;2.08;;
28605;SDS011;46498;49.968;7.754;2022-09-09T08:04:13;6.85;;;2.03;;
28605;SDS011;46498;49.968;7.754;2022-09-09T08:09:24;13.77;;;2.85;;
28605;SDS011;46498;49.968;7.754;2022-09-09T08:14:28;11.98;;;2.17;;
28605;SDS011;46498;49.968;7.754;2022-09-09T08:19:30;10.77;;;2.35;;
28605;SDS011;46498;49.968;7.754;2022-09-09T08:24:34;9.43;;;2.15;;
28605;SDS011;46498;49.968;7.754;2022-09-09T08:29:36;9.02;;;2.55;;
28605;SDS011;46498;49.968;7.754;2022-09-09T08:34:38;8.53;;;2.00;;
28605;SDS011;46498;49.968;7.754;2022-09-09T08:39:43;5.62;;;1.77;;
28605;SDS011;46498;49.968;7.754;2022-09-09T08:45:31;9.27;;;1.80;;
28605;SDS011;46498;49.968;7.754;2022-09-09T08:50:51;7.35;;;1.83;;
28605;SDS011;46498;49.968;7.754;2022-09-09T08:55:56;10.68;;;1.92;;
28605;SDS011;46498;49.968;7.754;2022-09-09T09:14:10;8.77;;;1.55;;
28605;SDS011;46498;49.968;7.754;2022-09-09T09:19:18;7.78;;;1.98;;
28605;SDS011;46498;49.968;7.754;2022-09-09T09:24:22;7.20;;;1.07;;
28605;SDS011;46498;49.968;7.754;2022-09-09T09:29:27;6.07;;;1.20;;
28605;SDS011;46498;49.968;7.754;2022-09-09T09:34:29;7.45;;;1.20;;
28605;SDS011;46498;49.968;7.754;2022-09-09T09:39:31;7.45;;;1.52;;
28605;SDS011;46498;49.968;7.754;2022-09-09T09:45:14;9.60;;;1.73;;
28605;SDS011;46498;49.968;7.754;2022-09-09T09:50:30;7.55;;;1.80;;
28605;SDS011;46498;49.968;7.754;2022-09-09T09:55:33;8.00;;;2.17;;
28605;SDS011;46498;49.968;7.754;2022-09-09T10:00:36;8.68;;;1.55;;
28605;SDS011;46498;49.968;7.754;2022-09-09T10:24:22;6.75;;;1.85;;
28605;SDS011;46498;49.968;7.754;2022-09-09T10:30:05;7.47;;;1.50;;
28605;SDS011;46498;49.968;7.754;2022-09-09T10:35:33;8.45;;;1.58;;
28605;SDS011;46498;49.968;7.754;2022-09-09T10:42:09;5.12;;;1.15;;
28605;SDS011;46498;49.968;7.754;2022-09-09T10:56:07;8.00;;;1.27;;
28605;SDS011;46498;49.968;7.754;2022-09-09T11:01:14;6.97;;;1.30;;
28605;SDS011;46498;49.968;7.754;2022-09-09T11:06:20;6.40;;;1.40;;
28605;SDS011;46498;49.968;7.754;2022-09-09T11:11:27;7.00;;;1.10;;
28605;SDS011;46498;49.968;7.754;2022-09-09T11:16:45;8.40;;;1.73;;
28605;SDS011;46498;49.968;7.754;2022-09-09T11:21:55;6.93;;;1.45;;
28605;SDS011;46498;49.968;7.754;2022-09-09T11:27:11;5.80;;;1.23;;
28605;SDS011;46498;49.968;7.754;2022-09-09T11:33:25;8.55;;;1.17;;
28605;SDS011;46498;49.968;7.754;2022-09-09T11:38:45;6.75;;;1.52;;
28605;SDS011;46498;49.968;7.754;2022-09-09T11:43:51;6.93;;;1.05;;
28605;SDS011;46498;49.968;7.754;2022-09-09T11:49:00;4.22;;;1.10;;
28605;SDS011;46498;49.968;7.754;2022-09-09T11:54:24;5.35;;;1.17;;
28605;SDS011;46498;49.968;7.754;2022-09-09T11:59:30;3.92;;;0.90;;
28605;SDS011;46498;49.968;7.754;2022-09-09T12:04:35;5.10;;;1.08;;
28605;SDS011;46498;49.968;7.754;2022-09-09T12:09:47;6.28;;;0.90;;
28605;SDS011;46498;49.968;7.754;2022-09-09T12:16:27;4.05;;;0.90;;
28605;SDS011;46498;49.968;7.754;2022-09-09T12:21:44;5.68;;;1.30;;
28605;SDS011;46498;49.968;7.754;2022-09-09T12:27:00;4.45;;;1.12;;
28605;SDS011;46498;49.968;7.754;2022-09-09T12:32:13;5.70;;;1.15;;
28605;SDS011;46498;49.968;7.754;2022-09-09T12:43:27;6.43;;;1.08;;
28605;SDS011;46498;49.968;7.754;2022-09-09T12:48:31;7.90;;;1.30;;
28605;SDS011;46498;49.968;7.754;2022-09-09T12:53:39;4.62;;;0.95;;
28605;SDS011;46498;49.968;7.754;2022-09-09T12:58:44;5.80;;;1.17;;
28605;SDS011;46498;49.968;7.754;2022-09-09T13:03:47;5.03;;;1.10;;
28605;SDS011;46498;49.968;7.754;2022-09-09T13:08:52;4.20;;;1.10;;
28605;SDS011;46498;49.968;7.754;2022-09-09T13:13:55;5.72;;;1.50;;
28605;SDS011;46498;49.968;7.754;2022-09-09T13:19:07;11.40;;;1.30;;
28605;SDS011;46498;49.968;7.754;2022-09-09T13:24:25;7.75;;;1.30;;
28605;SDS011;46498;49.968;7.754;2022-09-09T13:29:30;9.07;;;1.92;;
28605;SDS011;46498;49.968;7.754;2022-09-09T13:39:36;7.55;;;1.67;;
28605;SDS011;46498;49.968;7.754;2022-09-09T13:44:38;9.33;;;1.20;;
28605;SDS011;46498;49.968;7.754;2022-09-09T13:49:42;6.75;;;0.98;;
28605;SDS011;46498;49.968;7.754;2022-09-09T13:54:46;6.97;;;1.25;;
28605;SDS011;46498;49.968;7.754;2022-09-09T13:59:52;11.32;;;1.20;;
28605;SDS011;46498;49.968;7.754;2022-09-09T14:05:06;7.85;;;1.30;;
28605;SDS011;46498;49.968;7.754;2022-09-09T14:10:07;5.72;;;1.02;;
28605;SDS011;46498;49.968;7.754;2022-09-09T14:15:09;4.00;;;1.05;;
28605;SDS011;46498;49.968;7.754;2022-09-09T14:20:12;4.60;;;0.90;;
28605;SDS011;46498;49.968;7.754;2022-09-09T14:25:15;3.28;;;0.80;;
28605;SDS011;46498;49.968;7.754;2022-09-09T14:30:16;3.62;;;0.90;;
28605;SDS011;46498;49.968;7.754;2022-09-09T14:35:17;3.92;;;0.77;;
28605;SDS011;46498;49.968;7.754;2022-09-09T14:40:18;4.40;;;0.90;;
28605;SDS011;46498;49.968;7.754;2022-09-09T14:45:19;3.85;;;0.80;;
28605;SDS011;46498;49.968;7.754;2022-09-09T14:50:22;3.73;;;0.67;;
28605;SDS011;46498;49.968;7.754;2022-09-09T14:55:24;6.17;;;0.90;;
28605;SDS011;46498;49.968;7.754;2022-09-09T15:00:25;3.72;;;1.02;;
28605;SDS011;46498;49.968;7.754;2022-09-09T15:05:26;4.15;;;0.88;;
28605;SDS011;46498;49.968;7.754;2022-09-09T15:10:28;4.90;;;1.10;;
28605;SDS011;46498;49.968;7.754;2022-09-09T15:15:32;3.80;;;0.95;;
28605;SDS011;46498;49.968;7.754;2022-09-09T15:20:35;3.15;;;0.80;;
28605;SDS011;46498;49.968;7.754;2022-09-09T15:25:53;4.28;;;0.90;;
28605;SDS011;46498;49.968;7.754;2022-09-09T15:30:55;4.75;;;0.93;;
28605;SDS011;46498;49.968;7.754;2022-09-09T15:35:57;5.10;;;1.37;;
28605;SDS011;46498;49.968;7.754;2022-09-09T15:40:58;4.28;;;0.90;;
28605;SDS011;46498;49.968;7.754;2022-09-09T15:46:02;3.08;;;0.70;;
28605;SDS011;46498;49.968;7.754;2022-09-09T15:51:24;7.05;;;1.42;;
28605;SDS011;46498;49.968;7.754;2022-09-09T15:56:42;3.90;;;0.57;;
28605;SDS011;46498;49.968;7.754;2022-09-09T16:01:43;4.35;;;0.80;;
28605;SDS011;46498;49.968;7.754;2022-09-09T16:06:44;4.85;;;0.60;;
28605;SDS011;46498;49.968;7.754;2022-09-09T16:11:45;4.93;;;0.90;;
28605;SDS011;46498;49.968;7.754;2022-09-09T16:16:47;2.42;;;0.60;;
28605;SDS011;46498;49.968;7.754;2022-09-09T16:21:49;7.10;;;1.17;;
28605;SDS011;46498;49.968;7.754;2022-09-09T16:26:51;2.97;;;1.00;;
28605;SDS011;46498;49.968;7.754;2022-09-09T16:31:54;5.28;;;1.25;;
28605;SDS011;46498;49.968;7.754;2022-09-09T16:37:00;2.42;;;0.70;;
28605;SDS011;46498;49.968;7.754;2022-09-09T16:42:02;5.43;;;1.13;;
28605;SDS011;46498;49.968;7.754;2022-09-09T16:47:05;2.65;;;0.82;;
28605;SDS011;46498;49.968;7.754;2022-09-09T16:52:06;3.30;;;0.75;;
28605;SDS011;46498;49.968;7.754;2022-09-09T16:57:06;4.70;;;0.60;;
28605;SDS011;46498;49.968;7.754;2022-09-09T17:02:07;3.33;;;0.57;;
28605;SDS011;46498;49.968;7.754;2022-09-09T17:07:08;2.92;;;0.60;;
28605;SDS011;46498;49.968;7.754;2022-09-09T17:12:10;4.40;;;0.80;;
28605;SDS011;46498;49.968;7.754;2022-09-09T17:17:12;2.13;;;0.90;;
28605;SDS011;46498;49.968;7.754;2022-09-09T17:22:32;6.28;;;1.60;;
28605;SDS011;46498;49.968;7.754;2022-09-09T17:27:33;3.90;;;0.98;;
28605;SDS011;46498;49.968;7.754;2022-09-09T17:32:34;3.78;;;0.80;;
28605;SDS011;46498;49.968;7.754;2022-09-09T17:37:36;1.60;;;0.60;;
28605;SDS011;46498;49.968;7.754;2022-09-09T17:42:36;2.65;;;0.70;;
28605;SDS011;46498;49.968;7.754;2022-09-09T17:47:38;2.53;;;0.65;;
28605;SDS011;46498;49.968;7.754;2022-09-09T17:52:39;3.42;;;0.88;;
28605;SDS011;46498;49.968;7.754;2022-09-09T17:57:41;2.50;;;1.10;;
28605;SDS011;46498;49.968;7.754;2022-09-09T18:02:42;3.72;;;1.10;;
28605;SDS011;46498;49.968;7.754;2022-09-09T18:07:43;3.12;;;0.80;;
28605;SDS011;46498;49.968;7.754;2022-09-09T18:12:44;6.05;;;0.93;;
28605;SDS011;46498;49.968;7.754;2022-09-09T18:17:45;8.15;;;0.80;;
28605;SDS011;46498;49.968;7.754;2022-09-09T18:22:46;1.87;;;0.70;;
28605;SDS011;46498;49.968;7.754;2022-09-09T18:27:47;3.03;;;0.65;;
28605;SDS011;46498;49.968;7.754;2022-09-09T18:32:48;3.72;;;0.80;;
28605;SDS011;46498;49.968;7.754;2022-09-09T18:37:50;4.80;;;0.70;;
28605;SDS011;46498;49.968;7.754;2022-09-09T18:42:51;2.70;;;0.60;;
28605;SDS011;46498;49.968;7.754;2022-09-09T18:47:52;2.45;;;0.47;;
28605;SDS011;46498;49.968;7.754;2022-09-09T18:52:53;2.70;;;0.60;;
28605;SDS011;46498;49.968;7.754;2022-09-09T18:57:54;2.67;;;0.40;;
28605;SDS011;46498;49.968;7.754;2022-09-09T19:02:58;5.28;;;0.50;;
28605;SDS011;46498;49.968;7.754;2022-09-09T19:07:59;2.40;;;0.55;;
28605;SDS011;46498;49.968;7.754;2022-09-09T19:13:00;1.70;;;0.60;;
28605;SDS011;46498;49.968;7.754;2022-09-09T19:18:01;2.33;;;0.50;;
28605;SDS011;46498;49.968;7.754;2022-09-09T19:23:06;1.55;;;0.50;;
28605;SDS011;46498;49.968;7.754;2022-09-09T19:28:07;5.18;;;1.05;;
28605;SDS011;46498;49.968;7.754;2022-09-09T19:33:08;3.15;;;0.68;;
28605;SDS011;46498;49.968;7.754;2022-09-09T19:38:08;4.82;;;1.00;;
28605;SDS011;46498;49.968;7.754;2022-09-09T19:43:09;5.05;;;0.65;;
28605;SDS011;46498;49.968;7.754;2022-09-09T19:48:10;1.23;;;0.40;;
28605;SDS011;46498;49.968;7.754;2022-09-09T19:53:11;2.25;;;0.80;;
28605;SDS011;46498;49.968;7.754;2022-09-09T19:58:12;5.78;;;0.70;;
28605;SDS011;46498;49.968;7.754;2022-09-09T20:03:13;2.25;;;0.60;;
28605;SDS011;46498;49.968;7.754;2022-09-09T20:08:20;2.75;;;0.80;;
28605;SDS011;46498;49.968;7.754;2022-09-09T20:13:21;2.50;;;0.60;;
28605;SDS011;46498;49.968;7.754;2022-09-09T20:18:22;3.72;;;0.80;;
28605;SDS011;46498;49.968;7.754;2022-09-09T20:23:23;2.20;;;0.70;;
28605;SDS011;46498;49.968;7.754;2022-09-09T20:28:24;3.08;;;0.73;;
28605;SDS011;46498;49.968;7.754;2022-09-09T20:33:25;2.12;;;0.57;;
28605;SDS011;46498;49.968;7.754;2022-09-09T20:38:26;2.45;;;0.98;;
28605;SDS011;46498;49.968;7.754;2022-09-09T20:43:27;2.90;;;0.70;;
28605;SDS011;46498;49.968;7.754;2022-09-09T20:48:30;2.58;;;0.65;;
28605;SDS011;46498;49.968;7.754;2022-09-09T20:53:32;2.10;;;0.70;;
28605;SDS011;46498;49.968;7.754;2022-09-09T20:58:33;2.40;;;0.65;;
28605;SDS011;46498;49.968;7.754;2022-09-09T21:03:35;4.03;;;1.10;;
28605;SDS011;46498;49.968;7.754;2022-09-09T21:08:36;2.97;;;1.00;;
28605;SDS011;46498;49.968;7.754;2022-09-09T21:13:38;5.78;;;1.77;;
28605;SDS011;46498;49.968;7.754;2022-09-09T21:18:39;5.05;;;1.12;;
28605;SDS011;46498;49.968;7.754;2022-09-09T21:23:41;6.05;;;1.10;;
28605;SDS011;46498;49.968;7.754;2022-09-09T21:28:42;6.18;;;1.20;;
28605;SDS011;46498;49.968;7.754;2022-09-09T21:33:43;3.42;;;0.90;;
28605;SDS011;46498;49.968;7.754;2022-09-09T21:38:45;4.90;;;0.80;;
28605;SDS011;46498;49.968;7.754;2022-09-09T21:43:49;3.17;;;1.15;;
28605;SDS011;46498;49.968;7.754;2022-09-09T21:48:52;8.50;;;1.30;;
28605;SDS011;46498;49.968;7.754;2022-09-09T21:53:55;4.55;;;1.77;;
28605;SDS011;46498;49.968;7.754;2022-09-09T21:58:57;8.18;;;1.30;;
28605;SDS011;46498;49.968;7.754;2022-09-09T22:04:03;3.78;;;1.33;;
28605;SDS011;46498;49.968;7.754;2022-09-09T22:09:04;5.20;;;1.85;;
28605;SDS011;46498;49.968;7.754;2022-09-09T22:14:04;6.60;;;1.52;;
28605;SDS011;46498;49.968;7.754;2022-09-09T22:19:05;5.97;;;1.73;;
28605;SDS011;46498;49.968;7.754;2022-09-09T22:24:07;6.20;;;1.75;;
28605;SDS011;46498;49.968;7.754;2022-09-09T22:29:08;5.62;;;2.12;;
28605;SDS011;46498;49.968;7.754;2022-09-09T22:34:09;7.97;;;2.17;;
28605;SDS011;46498;49.968;7.754;2022-09-09T22:39:11;3.33;;;1.75;;
28605;SDS011;46498;49.968;7.754;2022-09-09T22:44:12;8.55;;;2.70;;
28605;SDS011;46498;49.968;7.754;2022-09-09T22:49:14;9.20;;;2.58;;
28605;SDS011;46498;49.968;7.754;2022-09-09T22:54:15;10.25;;;2.85;;
28605;SDS011;46498;49.968;7.754;2022-09-09T22:59:21;7.37;;;3.28;;
28605;SDS011;46498;49.968;7.754;2022-09-09T23:04:23;4.62;;;2.05;;
28605;SDS011;46498;49.968;7.754;2022-09-09T23:09:25;7.37;;;2.47;;
28605;SDS011;46498;49.968;7.754;2022-09-09T23:14:25;10.70;;;2.85;;
28605;SDS011;46498;49.968;7.754;2022-09-09T23:19:27;7.75;;;2.58;;
28605;SDS011;46498;49.968;7.754;2022-09-09T23:24:28;7.45;;;2.90;;
28605;SDS011;46498;49.968;7.754;2022-09-09T23:29:29;6.95;;;2.30;;
28605;SDS011;46498;49.968;7.754;2022-09-09T23:34:30;8.27;;;2.60;;
28605;SDS011;46498;49.968;7.754;2022-09-09T23:39:31;6.18;;;2.60;;
28605;SDS011;46498;49.968;7.754;2022-09-09T23:44:33;4.40;;;2.58;;
28605;SDS011;46498;49.968;7.754;2022-09-09T23:49:35;5.28;;;2.10;;
28605;SDS011;46498;49.968;7.754;2022-09-09T23:54:38;3.95;;;2.30;;
28605;SDS011;46498;49.968;7.754;2022-09-09T23:59:39;5.65;;;2.50;;
